Time,TemperatureF,DewpointF,PressureIn,WindDirection,WindDirectionDegrees,WindSpeedMPH,WindSpeedGustMPH,Humidity,HourlyPrecipIn,Conditions,Clouds,dailyrainin,SoftwareType,DateUTC
2013-01-30 00:03:00,26.8,15.5,29.61,NNW,338,3.5,3.5,62,0.00,CLR,,0.00,WeatherDisplay:10.37,2013-01-30 07:03:00,
2013-01-30 00:08:00,26.8,15.5,29.61,NNE,22,1.2,1.2,62,0.00,CLR,,0.00,WeatherDisplay:10.37,2013-01-30 07:08:00,
2013-01-30 00:13:00,27.0,15.7,29.61,NNE,22,5.2,5.2,62,0.00,CLR,,0.00,WeatherDisplay:10.37,2013-01-30 07:13:00,
2013-01-30 00:18:00,27.0,15.7,29.61,ENE,68,2.3,2.6,62,0.00,CLR,,0.00,WeatherDisplay:10.37,2013-01-30 07:18:00,
2013-01-30 00:23:00,26.8,15.5,29.62,NW,315,2.3,2.3,62,0.00,CLR,,0.00,WeatherDisplay:10.37,2013-01-30 07:23:00,
2013-01-30 00:28:00,26.8,15.5,29.62,NNE,22,1.2,1.2,62,0.00,CLR,,0.00,WeatherDisplay:10.37,2013-01-30 07:28:00,
2013-01-30 00:33:00,26.4,15.2,29.62,North,0,2.4,2.4,62,0.00,CLR,,0.00,WeatherDisplay:10.37,2013-01-30 07:33:00,
2013-01-30 00:38:00,26.2,15.0,29.62,West,270,4.6,4.6,62,0.00,CLR,,0.00,WeatherDisplay:10.37,2013-01-30 07:38:00,
2013-01-30 00:43:00,26.2,15.0,29.62,NW,315,2.3,2.3,62,0.00,CLR,,0.00,WeatherDisplay:10.37,2013-01-30 07:43:00,
2013-01-30 00:48:00,26.1,14.8,29.62,NW,315,2.3,2.3,62,0.00,CLR,,0.00,WeatherDisplay:10.37,2013-01-30 07:48:00,
2013-01-30 00:53:00,25.9,14.6,29.62,NNW,338,2.3,2.3,62,0.00,CLR,,0.00,WeatherDisplay:10.37,2013-01-30 07:53:00,
2013-01-30 00:58:00,25.9,15.0,29.63,North,0,1.2,1.2,63,0.00,CLR,,0.00,WeatherDisplay:10.37,2013-01-30 07:58:00,
2013-01-30 01:03:00,25.7,14.8,29.63,NNW,338,2.3,2.3,63,0.00,CLR,,0.00,WeatherDisplay:10.37,2013-01-30 08:03:00,
2013-01-30 01:08:00,25.7,14.8,29.63,North,0,4.6,4.6,63,0.00,CLR,,0.00,WeatherDisplay:10.37,2013-01-30 08:08:00,
2013-01-30 01:13:00,25.7,15.2,29.63,NNE,22,6.2,6.2,64,0.00,CLR,,0.00,WeatherDisplay:10.37,2013-01-30 08:13:00,
2013-01-30 01:18:00,25.7,15.2,29.63,WNW,292,6.2,6.2,64,0.00,CLR,,0.00,WeatherDisplay:10.37,2013-01-30 08:18:00,
2013-01-30 01:23:00,25.9,15.0,29.63,NW,315,2.3,2.3,63,0.00,CLR,,0.00,WeatherDisplay:10.37,2013-01-30 08:23:00,
2013-01-30 01:28:00,25.7,14.8,29.64,North,0,5.8,5.8,63,0.00,CLR,,0.00,WeatherDisplay:10.37,2013-01-30 08:28:00,
2013-01-30 01:33:00,25.7,15.2,29.64,WNW,292,2.3,2.3,64,0.00,CLR,,0.00,WeatherDisplay:10.37,2013-01-30 08:33:00,
2013-01-30 01:38:00,25.5,15.0,29.65,NW,315,4.6,4.6,64,0.00,CLR,,0.00,WeatherDisplay:10.37,2013-01-30 08:38:00,
2013-01-30 01:43:00,25.5,15.0,29.65,NW,315,4.0,4.0,64,0.00,CLR,,0.00,WeatherDisplay:10.37,2013-01-30 08:43:00,
2013-01-30 01:48:00,25.3,14.9,29.65,NNW,338,5.2,5.2,64,0.00,CLR,,0.00,WeatherDisplay:10.37,2013-01-30 08:48:00,
2013-01-30 01:53:00,25.5,15.0,29.65,WSW,248,4.6,4.6,64,0.00,CLR,,0.00,WeatherDisplay:10.37,2013-01-30 08:53:00,
2013-01-30 01:58:00,25.5,15.0,29.66,NNE,22,3.5,3.5,64,0.00,CLR,,0.00,WeatherDisplay:10.37,2013-01-30 08:58:00,
2013-01-30 02:03:00,25.5,15.0,29.66,NNW,338,2.3,2.3,64,0.00,CLR,,0.00,WeatherDisplay:10.37,2013-01-30 09:03:00,
2013-01-30 02:08:00,25.5,15.0,29.66,NW,315,6.9,6.9,64,0.00,CLR,,0.00,WeatherDisplay:10.37,2013-01-30 09:08:00,
2013-01-30 02:13:00,25.3,14.9,29.66,NNW,338,2.3,2.3,64,0.00,CLR,,0.00,WeatherDisplay:10.37,2013-01-30 09:13:00,
2013-01-30 02:18:00,25.3,14.9,29.66,WNW,292,2.9,2.9,64,0.00,CLR,,0.00,WeatherDisplay:10.37,2013-01-30 09:18:00,
2013-01-30 02:23:00,25.2,14.7,29.66,NW,315,1.2,1.2,64,0.00,CLR,,0.00,WeatherDisplay:10.37,2013-01-30 09:23:00,
2013-01-30 02:28:00,25.0,14.5,29.66,NW,315,0.0,0.0,64,0.00,CLR,,0.00,WeatherDisplay:10.37,2013-01-30 09:28:00,
2013-01-30 02:33:00,24.8,14.3,29.66,NNW,338,0.0,0.0,64,0.00,CLR,,0.00,WeatherDisplay:10.37,2013-01-30 09:33:00,
2013-01-30 02:38:00,24.6,14.2,29.67,NNW,338,1.8,1.8,64,0.00,CLR,,0.00,WeatherDisplay:10.37,2013-01-30 09:38:00,
2013-01-30 02:43:00,24.4,14.0,29.67,North,0,1.2,1.2,64,0.00,CLR,,0.00,WeatherDisplay:10.37,2013-01-30 09:43:00,
2013-01-30 02:48:00,24.3,14.2,29.67,NW,315,0.0,0.0,65,0.00,CLR,,0.00,WeatherDisplay:10.37,2013-01-30 09:48:00,
2013-01-30 02:53:00,24.1,14.0,29.67,SW,225,0.5,0.5,65,0.00,CLR,,0.00,WeatherDisplay:10.37,2013-01-30 09:53:00,
2013-01-30 02:58:00,24.1,14.0,29.67,NE,45,2.3,2.3,65,0.00,CLR,,0.00,WeatherDisplay:10.37,2013-01-30 09:58:00,
2013-01-30 03:03:00,23.9,13.8,29.67,NW,315,3.5,0.0,65,0.00,CLR,,0.00,WeatherDisplay:10.37,2013-01-30 10:03:00,
2013-01-30 03:08:00,23.7,13.7,29.67,East,90,0.5,0.5,65,0.00,CLR,,0.00,WeatherDisplay:10.37,2013-01-30 10:08:00,
2013-01-30 03:13:00,23.7,14.0,29.68,NNW,338,1.2,1.2,66,0.00,CLR,,0.00,WeatherDisplay:10.37,2013-01-30 10:13:00,
2013-01-30 03:18:00,23.4,13.7,29.67,NW,315,0.2,0.2,66,0.00,CLR,,0.00,WeatherDisplay:10.37,2013-01-30 10:18:00,
2013-01-30 03:23:00,23.4,13.7,29.68,North,0,2.3,2.3,66,0.00,CLR,,0.00,WeatherDisplay:10.37,2013-01-30 10:23:00,
2013-01-30 03:28:00,23.4,13.7,29.67,West,270,3.5,3.5,66,0.00,CLR,,0.00,WeatherDisplay:10.37,2013-01-30 10:28:00,
2013-01-30 03:33:00,23.4,13.7,29.68,NNW,338,2.3,2.3,66,0.00,CLR,,0.00,WeatherDisplay:10.37,2013-01-30 10:33:00,
2013-01-30 03:38:00,23.2,13.8,29.68,North,0,1.2,1.2,67,0.00,CLR,,0.00,WeatherDisplay:10.37,2013-01-30 10:38:00,
2013-01-30 03:43:00,23.2,13.8,29.68,NW,315,1.2,1.2,67,0.00,CLR,,0.00,WeatherDisplay:10.37,2013-01-30 10:43:00,
2013-01-30 03:48:00,23.0,13.7,29.68,NW,315,1.2,1.2,67,0.00,CLR,,0.00,WeatherDisplay:10.37,2013-01-30 10:48:00,
2013-01-30 03:53:00,22.8,13.5,29.68,WNW,292,4.6,0.0,67,0.00,CLR,,0.00,WeatherDisplay:10.37,2013-01-30 10:53:00,
2013-01-30 03:58:00,22.6,13.3,29.68,WNW,292,1.2,1.2,67,0.00,CLR,,0.00,WeatherDisplay:10.37,2013-01-30 10:58:00,
2013-01-30 04:03:00,22.6,13.7,29.67,WNW,292,1.2,0.0,68,0.00,CLR,,0.00,WeatherDisplay:10.37,2013-01-30 11:03:00,
2013-01-30 04:08:00,22.6,13.7,29.67,WNW,292,2.3,2.3,68,0.00,CLR,,0.00,WeatherDisplay:10.37,2013-01-30 11:08:00,
2013-01-30 04:13:00,22.6,14.0,29.67,WNW,292,2.9,2.9,69,0.00,CLR,,0.00,WeatherDisplay:10.37,2013-01-30 11:13:00,
2013-01-30 04:18:00,22.6,14.0,29.68,WNW,292,3.3,3.3,69,0.00,CLR,,0.00,WeatherDisplay:10.37,2013-01-30 11:18:00,
2013-01-30 04:23:00,22.6,13.7,29.68,WNW,292,2.3,2.3,68,0.00,CLR,,0.00,WeatherDisplay:10.37,2013-01-30 11:23:00,
2013-01-30 04:28:00,22.6,13.7,29.68,NNW,338,2.3,2.3,68,0.00,CLR,,0.00,WeatherDisplay:10.37,2013-01-30 11:28:00,
2013-01-30 04:33:00,22.6,14.0,29.68,NW,315,3.5,3.5,69,0.00,CLR,,0.00,WeatherDisplay:10.37,2013-01-30 11:33:00,
2013-01-30 04:38:00,22.6,14.0,29.69,NW,315,2.3,2.3,69,0.00,CLR,,0.00,WeatherDisplay:10.37,2013-01-30 11:38:00,
2013-01-30 04:43:00,22.5,13.8,29.69,NW,315,2.3,2.3,69,0.00,CLR,,0.00,WeatherDisplay:10.37,2013-01-30 11:43:00,
2013-01-30 04:48:00,22.5,13.8,29.69,ESE,112,2.3,2.3,69,0.00,CLR,,0.00,WeatherDisplay:10.37,2013-01-30 11:48:00,
2013-01-30 04:53:00,22.5,13.8,29.69,WNW,292,1.6,1.6,69,0.00,CLR,,0.00,WeatherDisplay:10.37,2013-01-30 11:53:00,
2013-01-30 04:58:00,22.3,13.6,29.69,NE,45,2.3,2.3,69,0.00,CLR,,0.00,WeatherDisplay:10.37,2013-01-30 11:58:00,
2013-01-30 05:03:00,22.1,13.1,29.69,North,0,0.0,0.0,68,0.00,CLR,,0.00,WeatherDisplay:10.37,2013-01-30 12:03:00,
2013-01-30 05:08:00,21.9,13.0,29.69,NNW,338,0.7,0.7,68,0.00,CLR,,0.00,WeatherDisplay:10.37,2013-01-30 12:08:00,
2013-01-30 05:13:00,21.7,12.8,29.69,NW,315,0.5,0.5,68,0.00,CLR,,0.00,WeatherDisplay:10.37,2013-01-30 12:13:00,
2013-01-30 05:18:00,21.7,12.8,29.70,NNE,22,1.2,1.2,68,0.00,CLR,,0.00,WeatherDisplay:10.37,2013-01-30 12:18:00,
2013-01-30 05:23:00,21.6,12.6,29.70,West,270,1.4,1.4,68,0.00,CLR,,0.00,WeatherDisplay:10.37,2013-01-30 12:23:00,
2013-01-30 05:28:00,21.4,12.8,29.70,NNE,22,2.0,2.0,69,0.00,CLR,,0.00,WeatherDisplay:10.37,2013-01-30 12:28:00,
2013-01-30 05:33:00,21.4,12.8,29.70,NW,315,2.4,2.4,69,0.00,CLR,,0.00,WeatherDisplay:10.37,2013-01-30 12:33:00,
2013-01-30 05:38:00,21.4,12.5,29.70,NNW,338,1.6,1.6,68,0.00,CLR,,0.00,WeatherDisplay:10.37,2013-01-30 12:38:00,
2013-01-30 05:43:00,21.2,12.6,29.71,NW,315,0.5,0.5,69,0.00,CLR,,0.00,WeatherDisplay:10.37,2013-01-30 12:43:00,
2013-01-30 05:48:00,21.4,12.8,29.71,NW,315,3.5,3.5,69,0.00,CLR,,0.00,WeatherDisplay:10.37,2013-01-30 12:48:00,
2013-01-30 05:53:00,21.4,12.8,29.71,NNW,338,3.5,3.5,69,0.00,CLR,,0.00,WeatherDisplay:10.37,2013-01-30 12:53:00,
2013-01-30 05:58:00,21.4,12.8,29.71,NNW,338,2.3,2.3,69,0.00,CLR,,0.00,WeatherDisplay:10.37,2013-01-30 12:58:00,
2013-01-30 06:03:00,21.4,12.5,29.71,NW,315,1.8,1.8,68,0.00,CLR,,0.00,WeatherDisplay:10.37,2013-01-30 13:03:00,
2013-01-30 06:08:00,21.6,12.6,29.71,North,0,3.5,3.5,68,0.00,CLR,,0.00,WeatherDisplay:10.37,2013-01-30 13:08:00,
2013-01-30 06:13:00,21.6,12.6,29.71,NNW,338,2.3,2.3,68,0.00,CLR,,0.00,WeatherDisplay:10.37,2013-01-30 13:13:00,
2013-01-30 06:18:00,21.6,12.6,29.72,WNW,292,3.5,3.5,68,0.00,CLR,,0.00,WeatherDisplay:10.37,2013-01-30 13:18:00,
2013-01-30 06:23:00,21.4,12.5,29.72,NNW,338,2.3,2.3,68,0.00,CLR,,0.00,WeatherDisplay:10.37,2013-01-30 13:23:00,
2013-01-30 06:28:00,21.4,12.5,29.72,North,0,2.6,2.6,68,0.00,CLR,,0.00,WeatherDisplay:10.37,2013-01-30 13:28:00,
2013-01-30 06:33:00,21.4,12.5,29.72,NW,315,4.6,4.6,68,0.00,CLR,,0.00,WeatherDisplay:10.37,2013-01-30 13:33:00,
2013-01-30 06:38:00,21.6,12.3,29.72,NW,315,5.8,5.8,67,0.00,CLR,,0.00,WeatherDisplay:10.37,2013-01-30 13:38:00,
2013-01-30 06:43:00,21.7,12.1,29.72,North,0,4.6,4.6,66,0.00,CLR,,0.00,WeatherDisplay:10.37,2013-01-30 13:43:00,
2013-01-30 06:48:00,21.9,12.3,29.72,WNW,292,4.6,4.6,66,0.00,CLR,,0.00,WeatherDisplay:10.37,2013-01-30 13:48:00,
2013-01-30 06:53:00,21.9,12.3,29.72,NW,315,4.6,4.6,66,0.00,CLR,,0.00,WeatherDisplay:10.37,2013-01-30 13:53:00,
2013-01-30 06:58:00,22.1,12.5,29.73,NNW,338,5.8,5.8,66,0.00,CLR,,0.00,WeatherDisplay:10.37,2013-01-30 13:58:00,
2013-01-30 07:03:00,22.1,12.5,29.74,North,0,5.8,5.8,66,0.00,CLR,,0.00,WeatherDisplay:10.37,2013-01-30 14:03:00,
2013-01-30 07:08:00,22.3,12.6,29.74,NW,315,5.8,5.8,66,0.00,CLR,,0.00,WeatherDisplay:10.37,2013-01-30 14:08:00,
2013-01-30 07:13:00,22.3,12.6,29.74,NNW,338,5.8,5.8,66,0.00,CLR,,0.00,WeatherDisplay:10.37,2013-01-30 14:13:00,
2013-01-30 07:18:00,22.1,12.5,29.74,NW,315,2.3,2.3,66,0.00,CLR,,0.00,WeatherDisplay:10.37,2013-01-30 14:18:00,
2013-01-30 07:23:00,22.1,12.5,29.74,NW,315,2.3,2.3,66,0.00,CLR,,0.00,WeatherDisplay:10.37,2013-01-30 14:23:00,
2013-01-30 07:28:00,22.1,12.5,29.74,NNW,338,3.5,3.5,66,0.00,CLR,,0.00,WeatherDisplay:10.37,2013-01-30 14:28:00,
2013-01-30 07:33:00,22.1,12.5,29.75,West,270,2.3,2.3,66,0.00,CLR,,0.00,WeatherDisplay:10.37,2013-01-30 14:33:00,
2013-01-30 07:38:00,22.1,12.5,29.75,North,0,4.6,4.6,66,0.00,CLR,,0.00,WeatherDisplay:10.37,2013-01-30 14:38:00,
2013-01-30 07:43:00,22.3,12.6,29.75,NNW,338,4.6,4.6,66,0.00,CLR,,0.00,WeatherDisplay:10.37,2013-01-30 14:43:00,
2013-01-30 07:48:00,22.5,12.8,29.75,NNE,22,5.8,5.8,66,0.00,CLR,,0.00,WeatherDisplay:10.37,2013-01-30 14:48:00,
2013-01-30 07:53:00,22.6,13.0,29.76,NNW,338,2.3,2.3,66,0.00,CLR,,0.00,WeatherDisplay:10.37,2013-01-30 14:53:00,
2013-01-30 07:58:00,22.6,13.0,29.76,NW,315,3.5,3.5,66,0.00,CLR,,0.00,WeatherDisplay:10.37,2013-01-30 14:58:00,
2013-01-30 08:03:00,23.2,13.5,29.75,NW,315,5.8,5.8,66,0.00,CLR,,0.00,WeatherDisplay:10.37,2013-01-30 15:03:00,
2013-01-30 08:08:00,23.7,13.3,29.76,WNW,292,8.1,8.1,64,0.00,CLR,,0.00,WeatherDisplay:10.37,2013-01-30 15:08:00,
2013-01-30 08:13:00,24.1,13.7,29.76,NW,315,5.8,5.8,64,0.00,CLR,,0.00,WeatherDisplay:10.37,2013-01-30 15:13:00,
2013-01-30 08:18:00,24.4,13.6,29.76,West,270,5.8,5.8,63,0.00,CLR,,0.00,WeatherDisplay:10.37,2013-01-30 15:18:00,
2013-01-30 08:23:00,24.8,13.6,29.76,NNW,338,5.8,5.8,62,0.00,CLR,,0.00,WeatherDisplay:10.37,2013-01-30 15:23:00,
2013-01-30 08:28:00,25.0,13.8,29.76,WNW,292,6.9,6.9,62,0.00,CLR,,0.00,WeatherDisplay:10.37,2013-01-30 15:28:00,
2013-01-30 08:33:00,25.2,14.0,29.76,NW,315,5.8,5.9,62,0.00,CLR,,0.00,WeatherDisplay:10.37,2013-01-30 15:33:00,
2013-01-30 08:38:00,25.3,13.8,29.76,NW,315,6.2,6.2,61,0.00,CLR,,0.00,WeatherDisplay:10.37,2013-01-30 15:38:00,
2013-01-30 08:43:00,25.5,13.9,29.77,NNW,338,6.9,6.9,61,0.00,CLR,,0.00,WeatherDisplay:10.37,2013-01-30 15:43:00,
2013-01-30 08:48:00,25.9,14.3,29.77,NNW,338,6.2,6.2,61,0.00,CLR,,0.00,WeatherDisplay:10.37,2013-01-30 15:48:00,
2013-01-30 08:53:00,26.1,14.4,29.77,NNW,338,4.6,4.6,61,0.00,CLR,,0.00,WeatherDisplay:10.37,2013-01-30 15:53:00,
2013-01-30 08:58:00,26.2,15.0,29.77,North,0,5.8,5.8,62,0.00,CLR,,0.00,WeatherDisplay:10.37,2013-01-30 15:58:00,
2013-01-30 09:03:00,26.6,14.9,29.77,WNW,292,5.8,5.8,61,0.00,CLR,,0.00,WeatherDisplay:10.37,2013-01-30 16:03:00,
2013-01-30 09:08:00,26.8,15.1,29.77,NW,315,4.6,4.6,61,0.00,CLR,,0.00,WeatherDisplay:10.37,2013-01-30 16:08:00,
2013-01-30 09:13:00,27.0,15.3,29.77,NNW,338,5.8,5.8,61,0.00,CLR,,0.00,WeatherDisplay:10.37,2013-01-30 16:13:00,
2013-01-30 09:18:00,27.5,15.0,29.77,NW,315,6.9,6.9,59,0.00,CLR,,0.00,WeatherDisplay:10.37,2013-01-30 16:18:00,
2013-01-30 09:23:00,27.7,14.8,29.77,NNW,338,3.5,6.4,58,0.00,CLR,,0.00,WeatherDisplay:10.37,2013-01-30 16:23:00,
2013-01-30 09:28:00,27.9,15.0,29.78,NNW,338,4.6,4.6,58,0.00,CLR,,0.00,WeatherDisplay:10.37,2013-01-30 16:28:00,
2013-01-30 09:33:00,28.2,14.9,29.78,WNW,292,4.6,4.6,57,0.00,CLR,,0.00,WeatherDisplay:10.37,2013-01-30 16:33:00,
2013-01-30 09:38:00,28.4,15.1,29.78,NW,315,3.1,3.1,57,0.00,CLR,,0.00,WeatherDisplay:10.37,2013-01-30 16:38:00,
2013-01-30 09:43:00,28.4,14.7,29.79,NW,315,5.8,5.8,56,0.00,CLR,,0.00,WeatherDisplay:10.37,2013-01-30 16:43:00,
2013-01-30 09:48:00,28.6,14.4,29.79,NNW,338,4.6,5.9,55,0.00,CLR,,0.00,WeatherDisplay:10.37,2013-01-30 16:48:00,
2013-01-30 09:53:00,28.6,14.4,29.79,WNW,292,2.3,2.3,55,0.00,CLR,,0.00,WeatherDisplay:10.37,2013-01-30 16:53:00,
2013-01-30 09:58:00,28.6,14.4,29.79,WNW,292,4.6,4.6,55,0.00,CLR,,0.00,WeatherDisplay:10.37,2013-01-30 16:58:00,
2013-01-30 10:03:00,28.9,14.8,29.79,WNW,292,4.9,4.9,55,0.00,CLR,,0.00,WeatherDisplay:10.37,2013-01-30 17:03:00,
2013-01-30 10:08:00,29.3,14.7,29.79,WNW,292,5.8,5.8,54,0.00,CLR,,0.00,WeatherDisplay:10.37,2013-01-30 17:08:00,
2013-01-30 10:13:00,29.7,14.6,29.80,NNW,338,4.7,4.7,53,0.00,CLR,,0.00,WeatherDisplay:10.37,2013-01-30 17:13:00,
2013-01-30 10:18:00,29.8,14.3,29.79,NW,315,6.2,6.2,52,0.00,CLR,,0.00,WeatherDisplay:10.37,2013-01-30 17:18:00,
2013-01-30 10:23:00,29.8,14.3,29.80,NW,315,2.9,2.9,52,0.00,CLR,,0.00,WeatherDisplay:10.37,2013-01-30 17:23:00,
2013-01-30 10:28:00,30.4,14.8,29.80,North,0,2.6,2.6,52,0.00,CLR,,0.00,WeatherDisplay:10.37,2013-01-30 17:28:00,
2013-01-30 10:33:00,30.7,14.7,29.80,NW,315,4.6,4.6,51,0.00,CLR,,0.00,WeatherDisplay:10.37,2013-01-30 17:33:00,
2013-01-30 10:38:00,31.3,14.8,29.79,NW,315,3.5,5.4,50,0.00,CLR,,0.00,WeatherDisplay:10.37,2013-01-30 17:38:00,
2013-01-30 10:43:00,31.8,12.9,29.79,WSW,248,9.2,9.2,45,0.00,CLR,,0.00,WeatherDisplay:10.37,2013-01-30 17:43:00,
2013-01-30 10:48:00,32.2,11.6,29.79,WNW,292,9.2,9.2,42,0.00,CLR,,0.00,WeatherDisplay:10.37,2013-01-30 17:48:00,
2013-01-30 10:53:00,32.7,11.6,29.79,WNW,292,5.8,5.8,41,0.00,CLR,,0.00,WeatherDisplay:10.37,2013-01-30 17:53:00,
2013-01-30 10:58:00,33.1,10.8,29.79,WSW,248,8.7,8.7,39,0.00,CLR,,0.00,WeatherDisplay:10.37,2013-01-30 17:58:00,
2013-01-30 11:03:00,33.3,10.9,29.78,WNW,292,9.2,9.2,39,0.00,CLR,,0.00,WeatherDisplay:10.37,2013-01-30 18:03:00,
2013-01-30 11:08:00,33.6,10.7,29.79,NNW,338,10.4,10.4,38,0.00,CLR,,0.00,WeatherDisplay:10.37,2013-01-30 18:08:00,
2013-01-30 11:13:00,33.8,10.2,29.79,WNW,292,8.1,8.1,37,0.00,CLR,,0.00,WeatherDisplay:10.37,2013-01-30 18:13:00,
2013-01-30 11:18:00,33.8,10.8,29.79,WNW,292,5.8,5.8,38,0.00,CLR,,0.00,WeatherDisplay:10.37,2013-01-30 18:18:00,
2013-01-30 11:23:00,34.3,10.7,29.79,North,0,6.9,6.9,37,0.00,CLR,,0.00,WeatherDisplay:10.37,2013-01-30 18:23:00,
2013-01-30 11:28:00,34.3,10.1,29.79,NNW,338,10.4,10.4,36,0.00,CLR,,0.00,WeatherDisplay:10.37,2013-01-30 18:28:00,
2013-01-30 11:33:00,34.5,10.9,29.79,WNW,292,6.2,6.2,37,0.00,CLR,,0.00,WeatherDisplay:10.37,2013-01-30 18:33:00,
2013-01-30 11:38:00,35.1,10.7,29.78,WNW,292,8.5,8.5,36,0.00,CLR,,0.00,WeatherDisplay:10.37,2013-01-30 18:38:00,
2013-01-30 11:43:00,35.1,10.7,29.78,WNW,292,8.1,8.1,36,0.00,CLR,,0.00,WeatherDisplay:10.37,2013-01-30 18:43:00,
2013-01-30 11:48:00,35.4,11.1,29.78,NNW,338,6.9,6.9,36,0.00,CLR,,0.00,WeatherDisplay:10.37,2013-01-30 18:48:00,
2013-01-30 11:53:00,35.4,10.4,29.78,NNW,338,10.4,10.4,35,0.00,CLR,,0.00,WeatherDisplay:10.37,2013-01-30 18:53:00,
2013-01-30 11:58:00,35.6,10.6,29.78,NNW,338,7.4,7.4,35,0.00,CLR,,0.00,WeatherDisplay:10.37,2013-01-30 18:58:00,
2013-01-30 12:03:00,35.8,10.8,29.77,NW,315,9.2,9.2,35,0.00,CLR,,0.00,WeatherDisplay:10.37,2013-01-30 19:03:00,
2013-01-30 12:08:00,36.0,10.9,29.77,NW,315,6.9,6.9,35,0.00,CLR,,0.00,WeatherDisplay:10.37,2013-01-30 19:08:00,
2013-01-30 12:14:00,36.3,11.2,29.77,WNW,292,9.2,9.2,35,0.00,CLR,,0.00,WeatherDisplay:10.37,2013-01-30 19:14:00,
2013-01-30 12:19:00,36.5,11.4,29.77,NNW,338,8.5,8.5,35,0.00,CLR,,0.00,WeatherDisplay:10.37,2013-01-30 19:19:00,
2013-01-30 12:24:00,36.5,11.4,29.77,WNW,292,9.2,9.2,35,0.00,CLR,,0.00,WeatherDisplay:10.37,2013-01-30 19:24:00,
2013-01-30 12:29:00,36.3,11.9,29.77,NW,315,9.2,9.2,36,0.00,CLR,,0.00,WeatherDisplay:10.37,2013-01-30 19:29:00,
2013-01-30 12:34:00,36.3,11.9,29.77,NNW,338,6.9,6.9,36,0.00,CLR,,0.00,WeatherDisplay:10.37,2013-01-30 19:34:00,
2013-01-30 12:39:00,36.5,12.7,29.77,WNW,292,9.2,9.2,37,0.00,CLR,,0.00,WeatherDisplay:10.37,2013-01-30 19:39:00,
2013-01-30 12:44:00,36.9,13.0,29.76,WSW,248,8.1,8.1,37,0.00,CLR,,0.00,WeatherDisplay:10.37,2013-01-30 19:44:00,
2013-01-30 12:49:00,36.7,12.8,29.76,NE,45,5.8,5.8,37,0.00,CLR,,0.00,WeatherDisplay:10.37,2013-01-30 19:49:00,
2013-01-30 12:54:00,37.0,13.1,29.76,WSW,248,6.9,6.9,37,0.00,CLR,,0.00,WeatherDisplay:10.37,2013-01-30 19:54:00,
2013-01-30 12:59:00,37.4,13.5,29.76,WSW,248,2.3,2.3,37,0.00,CLR,,0.00,WeatherDisplay:10.37,2013-01-30 19:59:00,
2013-01-30 13:04:00,37.8,13.2,29.76,North,0,8.1,8.1,36,0.00,CLR,,0.00,WeatherDisplay:10.37,2013-01-30 20:04:00,
2013-01-30 13:09:00,37.2,13.3,29.76,NW,315,8.1,8.1,37,0.00,CLR,,0.00,WeatherDisplay:10.37,2013-01-30 20:09:00,
2013-01-30 13:14:00,37.2,13.3,29.75,NW,315,5.8,5.8,37,0.00,CLR,,0.00,WeatherDisplay:10.37,2013-01-30 20:14:00,
2013-01-30 13:19:00,37.8,13.8,29.75,NW,315,4.7,4.7,37,0.00,CLR,,0.00,WeatherDisplay:10.37,2013-01-30 20:19:00,
2013-01-30 13:24:00,38.1,13.5,29.75,NW,315,6.9,6.9,36,0.00,CLR,,0.00,WeatherDisplay:10.37,2013-01-30 20:24:00,
2013-01-30 13:29:00,37.8,13.8,29.75,West,270,5.8,5.8,37,0.00,CLR,,0.00,WeatherDisplay:10.37,2013-01-30 20:29:00,
2013-01-30 13:34:00,37.8,13.2,29.75,West,270,5.8,5.8,36,0.00,CLR,,0.00,WeatherDisplay:10.37,2013-01-30 20:34:00,
2013-01-30 13:39:00,37.8,13.2,29.75,West,270,9.4,9.4,36,0.00,CLR,,0.00,WeatherDisplay:10.37,2013-01-30 20:39:00,
2013-01-30 13:44:00,37.6,13.6,29.75,WNW,292,4.6,4.6,37,0.00,CLR,,0.00,WeatherDisplay:10.37,2013-01-30 20:44:00,
2013-01-30 13:49:00,37.8,13.8,29.74,WSW,248,4.6,4.6,37,0.00,CLR,,0.00,WeatherDisplay:10.37,2013-01-30 20:49:00,
2013-01-30 13:54:00,38.1,13.5,29.75,NW,315,5.8,5.8,36,0.00,CLR,,0.00,WeatherDisplay:10.37,2013-01-30 20:54:00,
2013-01-30 13:59:00,38.5,13.8,29.75,NNW,338,9.2,9.2,36,0.00,CLR,,0.00,WeatherDisplay:10.37,2013-01-30 20:59:00,
2013-01-30 14:04:00,38.8,14.1,29.74,NNW,338,6.2,6.2,36,0.00,CLR,,0.00,WeatherDisplay:10.37,2013-01-30 21:04:00,
2013-01-30 14:09:00,38.8,13.5,29.74,NNW,338,5.8,5.8,35,0.00,CLR,,0.00,WeatherDisplay:10.37,2013-01-30 21:09:00,
2013-01-30 14:14:00,39.0,14.3,29.74,NNW,338,5.8,5.8,36,0.00,CLR,,0.00,WeatherDisplay:10.37,2013-01-30 21:14:00,
2013-01-30 14:19:00,39.2,13.1,29.74,NW,315,8.7,8.7,34,0.00,CLR,,0.00,WeatherDisplay:10.37,2013-01-30 21:19:00,
2013-01-30 14:24:00,39.0,13.6,29.74,WNW,292,8.3,8.3,35,0.00,CLR,,0.00,WeatherDisplay:10.37,2013-01-30 21:24:00,
2013-01-30 14:29:00,39.0,13.6,29.74,NNW,338,6.9,6.9,35,0.00,CLR,,0.00,WeatherDisplay:10.37,2013-01-30 21:29:00,
2013-01-30 14:34:00,39.2,13.8,29.74,ENE,68,6.9,6.9,35,0.00,CLR,,0.00,WeatherDisplay:10.37,2013-01-30 21:34:00,
2013-01-30 14:39:00,39.0,13.6,29.74,NNW,338,4.6,6.7,35,0.00,CLR,,0.00,WeatherDisplay:10.37,2013-01-30 21:39:00,
2013-01-30 14:44:00,39.0,14.3,29.74,North,0,3.5,3.5,36,0.00,CLR,,0.00,WeatherDisplay:10.37,2013-01-30 21:44:00,
2013-01-30 14:49:00,39.4,14.6,29.74,NNW,338,3.8,3.8,36,0.00,CLR,,0.00,WeatherDisplay:10.37,2013-01-30 21:49:00,
2013-01-30 14:54:00,39.9,14.4,29.74,WNW,292,5.8,5.8,35,0.00,CLR,,0.00,WeatherDisplay:10.37,2013-01-30 21:54:00,
2013-01-30 14:59:00,40.3,14.8,29.74,NW,315,4.6,5.4,35,0.00,CLR,,0.00,WeatherDisplay:10.37,2013-01-30 21:59:00,
2013-01-30 15:04:00,39.9,13.8,29.74,NW,315,6.2,6.2,34,0.00,CLR,,0.00,WeatherDisplay:10.37,2013-01-30 22:04:00,
2013-01-30 15:09:00,39.9,14.4,29.74,NW,315,5.9,5.9,35,0.00,CLR,,0.00,WeatherDisplay:10.37,2013-01-30 22:09:00,
2013-01-30 15:14:00,40.3,14.8,29.74,NNW,338,7.6,7.6,35,0.00,CLR,,0.00,WeatherDisplay:10.37,2013-01-30 22:14:00,
2013-01-30 15:19:00,40.3,14.8,29.74,NNW,338,3.5,3.5,35,0.00,CLR,,0.00,WeatherDisplay:10.37,2013-01-30 22:19:00,
2013-01-30 15:24:00,40.6,15.1,29.74,NW,315,4.6,4.6,35,0.00,CLR,,0.00,WeatherDisplay:10.37,2013-01-30 22:24:00,
2013-01-30 15:29:00,40.6,15.1,29.74,NW,315,4.6,7.1,35,0.00,CLR,,0.00,WeatherDisplay:10.37,2013-01-30 22:29:00,
2013-01-30 15:34:00,40.5,15.6,29.74,WNW,292,5.2,5.2,36,0.00,CLR,,0.00,WeatherDisplay:10.37,2013-01-30 22:34:00,
2013-01-30 15:39:00,40.5,15.6,29.74,NW,315,4.6,4.6,36,0.00,CLR,,0.00,WeatherDisplay:10.37,2013-01-30 22:39:00,
2013-01-30 15:44:00,40.6,15.7,29.74,NW,315,6.9,6.9,36,0.00,CLR,,0.00,WeatherDisplay:10.37,2013-01-30 22:44:00,
2013-01-30 15:49:00,40.5,15.6,29.75,WNW,292,6.9,6.9,36,0.00,CLR,,0.00,WeatherDisplay:10.37,2013-01-30 22:49:00,
2013-01-30 15:54:00,40.6,16.4,29.74,NNW,338,6.9,6.9,37,0.00,CLR,,0.00,WeatherDisplay:10.37,2013-01-30 22:54:00,
2013-01-30 15:59:00,40.6,16.4,29.74,East,90,6.9,6.9,37,0.00,CLR,,0.00,WeatherDisplay:10.37,2013-01-30 22:59:00,
2013-01-30 16:04:00,40.5,16.2,29.74,NW,315,9.7,9.7,37,0.00,CLR,,0.00,WeatherDisplay:10.37,2013-01-30 23:04:00,
2013-01-30 16:09:00,40.6,16.4,29.74,West,270,5.4,5.4,37,0.00,CLR,,0.00,WeatherDisplay:10.37,2013-01-30 23:09:00,
2013-01-30 16:14:00,40.6,16.4,29.74,NNW,338,5.9,5.9,37,0.00,CLR,,0.00,WeatherDisplay:10.37,2013-01-30 23:14:00,
2013-01-30 16:19:00,40.5,16.2,29.74,WNW,292,5.8,5.8,37,0.00,CLR,,0.00,WeatherDisplay:10.37,2013-01-30 23:19:00,
2013-01-30 16:24:00,40.6,17.0,29.75,NW,315,6.9,6.9,38,0.00,CLR,,0.00,WeatherDisplay:10.37,2013-01-30 23:24:00,
2013-01-30 16:29:00,40.5,16.2,29.75,NW,315,5.2,5.2,37,0.00,CLR,,0.00,WeatherDisplay:10.37,2013-01-30 23:29:00,
2013-01-30 16:34:00,40.3,16.0,29.75,West,270,5.8,5.8,37,0.00,CLR,,0.00,WeatherDisplay:10.37,2013-01-30 23:34:00,
2013-01-30 16:39:00,40.1,15.9,29.75,West,270,6.9,6.9,37,0.00,CLR,,0.00,WeatherDisplay:10.37,2013-01-30 23:39:00,
2013-01-30 16:44:00,39.9,15.7,29.74,NNE,22,5.8,5.8,37,0.00,CLR,,0.00,WeatherDisplay:10.37,2013-01-30 23:44:00,
2013-01-30 16:49:00,39.6,16.0,29.74,NNW,338,8.1,8.1,38,0.00,CLR,,0.00,WeatherDisplay:10.37,2013-01-30 23:49:00,
2013-01-30 16:54:00,39.4,15.8,29.74,NW,315,4.6,4.6,38,0.00,CLR,,0.00,WeatherDisplay:10.37,2013-01-30 23:54:00,
2013-01-30 16:59:00,39.2,15.7,29.74,NNW,338,6.2,6.2,38,0.00,CLR,,0.00,WeatherDisplay:10.37,2013-01-30 23:59:00,
2013-01-30 17:04:00,39.2,15.7,29.74,WNW,292,8.1,8.1,38,0.00,CLR,,0.00,WeatherDisplay:10.37,2013-01-31 00:04:00,
2013-01-30 17:09:00,38.8,15.4,29.75,WNW,292,6.9,6.9,38,0.00,CLR,,0.00,WeatherDisplay:10.37,2013-01-31 00:09:00,
2013-01-30 17:14:00,38.7,15.8,29.75,NW,315,6.9,6.9,39,0.00,CLR,,0.00,WeatherDisplay:10.37,2013-01-31 00:14:00,
2013-01-30 17:19:00,38.5,15.6,29.75,West,270,6.9,6.9,39,0.00,CLR,,0.00,WeatherDisplay:10.37,2013-01-31 00:19:00,
2013-01-30 17:24:00,38.3,15.5,29.75,NW,315,4.7,4.7,39,0.00,CLR,,0.00,WeatherDisplay:10.37,2013-01-31 00:24:00,
2013-01-30 17:29:00,38.1,15.9,29.75,NNW,338,5.8,5.8,40,0.00,CLR,,0.00,WeatherDisplay:10.37,2013-01-31 00:29:00,
2013-01-30 17:34:00,37.8,15.6,29.76,NW,315,2.3,2.3,40,0.00,CLR,,0.00,WeatherDisplay:10.37,2013-01-31 00:34:00,
2013-01-30 17:39:00,37.6,15.4,29.75,NNW,338,2.4,2.4,40,0.00,CLR,,0.00,WeatherDisplay:10.37,2013-01-31 00:39:00,
2013-01-30 17:44:00,37.4,15.8,29.76,North,0,4.0,4.0,41,0.00,CLR,,0.00,WeatherDisplay:10.37,2013-01-31 00:44:00,
2013-01-30 17:49:00,37.2,16.2,29.76,North,0,2.4,2.4,42,0.00,CLR,,0.00,WeatherDisplay:10.37,2013-01-31 00:49:00,
2013-01-30 17:54:00,36.9,15.9,29.76,North,0,2.3,2.3,42,0.00,CLR,,0.00,WeatherDisplay:10.37,2013-01-31 00:54:00,
2013-01-30 17:59:00,36.7,15.7,29.76,NW,315,3.5,3.5,42,0.00,CLR,,0.00,WeatherDisplay:10.37,2013-01-31 00:59:00,
2013-01-30 18:04:00,36.5,16.1,29.76,NNE,22,5.8,5.8,43,0.00,CLR,,0.00,WeatherDisplay:10.37,2013-01-31 01:04:00,
2013-01-30 18:09:00,36.3,15.9,29.76,NW,315,2.9,2.9,43,0.00,CLR,,0.00,WeatherDisplay:10.37,2013-01-31 01:09:00,
2013-01-30 18:14:00,36.3,15.9,29.77,North,0,2.4,2.4,43,0.00,CLR,,0.00,WeatherDisplay:10.37,2013-01-31 01:14:00,
2013-01-30 18:19:00,36.1,16.3,29.77,North,0,2.3,2.3,44,0.00,CLR,,0.00,WeatherDisplay:10.37,2013-01-31 01:19:00,
2013-01-30 18:24:00,35.8,15.4,29.77,NNW,338,2.6,2.6,43,0.00,CLR,,0.00,WeatherDisplay:10.37,2013-01-31 01:24:00,
2013-01-30 18:29:00,35.6,15.8,29.77,SSE,158,2.9,2.9,44,0.00,CLR,,0.00,WeatherDisplay:10.37,2013-01-31 01:29:00,
2013-01-30 18:34:00,35.6,15.8,29.77,North,0,1.2,1.2,44,0.00,CLR,,0.00,WeatherDisplay:10.37,2013-01-31 01:34:00,
2013-01-30 18:39:00,35.4,15.6,29.77,NW,315,6.9,6.9,44,0.00,CLR,,0.00,WeatherDisplay:10.37,2013-01-31 01:39:00,
2013-01-30 18:44:00,35.6,15.8,29.78,North,0,3.5,3.5,44,0.00,CLR,,0.00,WeatherDisplay:10.37,2013-01-31 01:44:00,
2013-01-30 18:49:00,36.0,16.1,29.77,NNW,338,2.3,2.3,44,0.00,CLR,,0.00,WeatherDisplay:10.37,2013-01-31 01:49:00,
2013-01-30 18:54:00,36.1,16.3,29.77,NW,315,2.3,2.3,44,0.00,CLR,,0.00,WeatherDisplay:10.37,2013-01-31 01:54:00,
2013-01-30 18:59:00,36.3,16.5,29.78,West,270,5.2,5.2,44,0.00,CLR,,0.00,WeatherDisplay:10.37,2013-01-31 01:59:00,
2013-01-30 19:04:00,36.5,16.6,29.78,NW,315,3.5,3.5,44,0.00,CLR,,0.00,WeatherDisplay:10.37,2013-01-31 02:04:00,
2013-01-30 19:09:00,36.7,16.8,29.78,NNW,338,3.5,3.5,44,0.00,CLR,,0.00,WeatherDisplay:10.37,2013-01-31 02:09:00,
2013-01-30 19:14:00,36.7,16.8,29.78,NW,315,2.3,2.3,44,0.00,CLR,,0.00,WeatherDisplay:10.37,2013-01-31 02:14:00,
2013-01-30 19:19:00,36.5,16.6,29.78,NW,315,4.6,4.6,44,0.00,CLR,,0.00,WeatherDisplay:10.37,2013-01-31 02:19:00,
2013-01-30 19:24:00,36.5,17.1,29.78,NNE,22,4.6,4.6,45,0.00,CLR,,0.00,WeatherDisplay:10.37,2013-01-31 02:24:00,
2013-01-30 19:29:00,36.5,17.1,29.78,WNW,292,2.3,2.3,45,0.00,CLR,,0.00,WeatherDisplay:10.37,2013-01-31 02:29:00,
2013-01-30 19:34:00,36.3,17.0,29.79,NW,315,2.3,2.3,45,0.00,CLR,,0.00,WeatherDisplay:10.37,2013-01-31 02:34:00,
2013-01-30 19:39:00,36.3,17.0,29.79,NNW,338,2.3,2.3,45,0.00,CLR,,0.00,WeatherDisplay:10.37,2013-01-31 02:39:00,
2013-01-30 19:44:00,36.1,16.8,29.79,NW,315,2.3,2.3,45,0.00,CLR,,0.00,WeatherDisplay:10.37,2013-01-31 02:44:00,
2013-01-30 19:49:00,36.0,16.7,29.79,WNW,292,4.6,4.6,45,0.00,CLR,,0.00,WeatherDisplay:10.37,2013-01-31 02:49:00,
2013-01-30 19:54:00,36.0,16.1,29.79,North,0,0.2,0.2,44,0.00,CLR,,0.00,WeatherDisplay:10.37,2013-01-31 02:54:00,
2013-01-30 19:59:00,35.6,16.3,29.79,NNW,338,2.3,2.3,45,0.00,CLR,,0.00,WeatherDisplay:10.37,2013-01-31 02:59:00,
2013-01-30 20:04:00,35.4,16.2,29.79,North,0,0.0,0.0,45,0.00,CLR,,0.00,WeatherDisplay:10.37,2013-01-31 03:04:00,
2013-01-30 20:09:00,35.1,15.8,29.79,North,0,0.0,0.5,45,0.00,CLR,,0.00,WeatherDisplay:10.37,2013-01-31 03:09:00,
2013-01-30 20:14:00,34.7,15.5,29.79,NE,45,0.2,0.2,45,0.00,CLR,,0.00,WeatherDisplay:10.37,2013-01-31 03:14:00,
2013-01-30 20:19:00,34.3,15.7,29.79,ENE,68,1.2,1.2,46,0.00,CLR,,0.00,WeatherDisplay:10.37,2013-01-31 03:19:00,
2013-01-30 20:24:00,34.2,16.0,29.79,North,0,2.9,2.9,47,0.00,CLR,,0.00,WeatherDisplay:10.37,2013-01-31 03:24:00,
2013-01-30 20:29:00,34.0,16.3,29.79,North,0,1.4,1.4,48,0.00,CLR,,0.00,WeatherDisplay:10.37,2013-01-31 03:29:00,
2013-01-30 20:34:00,34.2,16.5,29.79,East,90,1.2,1.2,48,0.00,CLR,,0.00,WeatherDisplay:10.37,2013-01-31 03:34:00,
2013-01-30 20:39:00,34.5,16.8,29.79,North,0,2.3,2.3,48,0.00,CLR,,0.00,WeatherDisplay:10.37,2013-01-31 03:39:00,
2013-01-30 20:44:00,34.7,17.0,29.79,NNE,22,1.6,1.6,48,0.00,CLR,,0.00,WeatherDisplay:10.37,2013-01-31 03:44:00,
2013-01-30 20:49:00,34.9,17.2,29.79,SE,135,1.2,1.2,48,0.00,CLR,,0.00,WeatherDisplay:10.37,2013-01-31 03:49:00,
2013-01-30 20:54:00,34.9,17.2,29.79,North,0,2.3,2.3,48,0.00,CLR,,0.00,WeatherDisplay:10.37,2013-01-31 03:54:00,
2013-01-30 20:59:00,35.1,17.3,29.79,North,0,1.4,1.4,48,0.00,CLR,,0.00,WeatherDisplay:10.37,2013-01-31 03:59:00,
2013-01-30 21:04:00,34.9,17.2,29.79,NNW,338,2.3,2.3,48,0.00,CLR,,0.00,WeatherDisplay:10.37,2013-01-31 04:04:00,
2013-01-30 21:09:00,34.9,17.2,29.79,NE,45,1.2,1.2,48,0.00,CLR,,0.00,WeatherDisplay:10.37,2013-01-31 04:09:00,
2013-01-30 21:14:00,34.7,17.0,29.79,East,90,2.3,0.0,48,0.00,CLR,,0.00,WeatherDisplay:10.37,2013-01-31 04:14:00,
2013-01-30 21:19:00,34.3,16.7,29.79,West,270,0.0,0.0,48,0.00,CLR,,0.00,WeatherDisplay:10.37,2013-01-31 04:19:00,
2013-01-30 21:24:00,34.0,16.3,29.79,SW,225,0.0,1.2,48,0.00,CLR,,0.00,WeatherDisplay:10.37,2013-01-31 04:24:00,
2013-01-30 21:29:00,33.6,16.5,29.79,SW,225,0.0,0.0,49,0.00,CLR,,0.00,WeatherDisplay:10.37,2013-01-31 04:29:00,
2013-01-30 21:34:00,33.3,16.1,29.79,SW,225,0.0,0.0,49,0.00,CLR,,0.00,WeatherDisplay:10.37,2013-01-31 04:34:00,
2013-01-30 21:39:00,32.9,15.8,29.79,SW,225,0.0,0.0,49,0.00,CLR,,0.00,WeatherDisplay:10.37,2013-01-31 04:39:00,
2013-01-30 21:44:00,32.5,15.9,29.79,SW,225,0.0,0.0,50,0.00,CLR,,0.00,WeatherDisplay:10.37,2013-01-31 04:44:00,
2013-01-30 21:49:00,32.0,15.4,29.79,SW,225,0.0,0.0,50,0.00,CLR,,0.00,WeatherDisplay:10.37,2013-01-31 04:49:00,
2013-01-30 21:54:00,31.8,15.3,29.79,SW,225,0.0,0.0,50,0.00,CLR,,0.00,WeatherDisplay:10.37,2013-01-31 04:54:00,
2013-01-30 21:59:00,31.3,15.2,29.79,SW,225,0.0,0.0,51,0.00,CLR,,0.00,WeatherDisplay:10.37,2013-01-31 04:59:00,
2013-01-30 22:01:00,31.3,15.2,29.79,SW,225,0.0,0.0,51,0.00,CLR,,0.00,WeatherDisplay:10.37,2013-01-31 05:01:00,
2013-01-30 22:03:00,31.3,15.2,29.79,SW,225,0.0,0.0,51,0.00,CLR,,0.00,WeatherDisplay:10.37,2013-01-31 05:03:00,
2013-01-30 22:08:00,30.7,14.7,29.79,SE,135,0.5,0.5,51,0.00,CLR,,0.00,WeatherDisplay:10.37,2013-01-31 05:08:00,
2013-01-30 22:13:00,30.6,15.0,29.79,East,90,0.0,0.0,52,0.00,CLR,,0.00,WeatherDisplay:10.37,2013-01-31 05:13:00,
2013-01-30 22:18:00,30.2,14.7,29.80,East,90,0.0,0.0,52,0.00,CLR,,0.00,WeatherDisplay:10.37,2013-01-31 05:18:00,
2013-01-30 22:23:00,30.0,14.5,29.80,East,90,0.0,0.0,52,0.00,CLR,,0.00,WeatherDisplay:10.37,2013-01-31 05:23:00,
2013-01-30 22:28:00,29.8,14.3,29.79,ENE,68,0.0,0.0,52,0.00,CLR,,0.00,WeatherDisplay:10.37,2013-01-31 05:28:00,
2013-01-30 22:33:00,29.5,14.0,29.79,ESE,112,0.2,0.2,52,0.00,CLR,,0.00,WeatherDisplay:10.37,2013-01-31 05:33:00,
2013-01-30 22:38:00,29.1,14.1,29.80,ESE,112,0.0,0.0,53,0.00,CLR,,0.00,WeatherDisplay:10.37,2013-01-31 05:38:00,
2013-01-30 22:43:00,29.1,14.9,29.80,NW,315,0.0,0.0,55,0.00,CLR,,0.00,WeatherDisplay:10.37,2013-01-31 05:43:00,
2013-01-30 22:48:00,29.1,14.5,29.80,ESE,112,0.5,0.5,54,0.00,CLR,,0.00,WeatherDisplay:10.37,2013-01-31 05:48:00,
2013-01-30 22:53:00,28.9,14.4,29.80,ESE,112,1.2,1.2,54,0.00,CLR,,0.00,WeatherDisplay:10.37,2013-01-31 05:53:00,
2013-01-30 22:58:00,28.8,14.6,29.80,ESE,112,1.2,1.2,55,0.00,CLR,,0.00,WeatherDisplay:10.37,2013-01-31 05:58:00,
2013-01-30 23:03:00,28.8,14.6,29.81,East,90,1.6,1.6,55,0.00,CLR,,0.00,WeatherDisplay:10.37,2013-01-31 06:03:00,
2013-01-30 23:08:00,28.8,14.6,29.80,ESE,112,4.6,4.6,55,0.00,CLR,,0.00,WeatherDisplay:10.37,2013-01-31 06:08:00,
2013-01-30 23:13:00,28.9,15.2,29.81,NNE,22,0.0,0.0,56,0.00,CLR,,0.00,WeatherDisplay:10.37,2013-01-31 06:13:00,
2013-01-30 23:18:00,29.1,15.4,29.80,SSE,158,2.3,2.3,56,0.00,CLR,,0.00,WeatherDisplay:10.37,2013-01-31 06:18:00,
2013-01-30 23:23:00,29.1,15.4,29.80,East,90,2.4,2.4,56,0.00,CLR,,0.00,WeatherDisplay:10.37,2013-01-31 06:23:00,
2013-01-30 23:28:00,29.1,15.4,29.81,SE,135,1.2,1.2,56,0.00,CLR,,0.00,WeatherDisplay:10.37,2013-01-31 06:28:00,
2013-01-30 23:33:00,29.1,15.4,29.81,SE,135,2.3,2.3,56,0.00,CLR,,0.00,WeatherDisplay:10.37,2013-01-31 06:33:00,
2013-01-30 23:38:00,29.1,15.4,29.81,ESE,112,0.7,0.7,56,0.00,CLR,,0.00,WeatherDisplay:10.37,2013-01-31 06:38:00,
2013-01-30 23:43:00,29.1,15.4,29.81,ESE,112,1.2,1.2,56,0.00,CLR,,0.00,WeatherDisplay:10.37,2013-01-31 06:43:00,
2013-01-30 23:48:00,29.1,15.4,29.81,ESE,112,1.2,1.2,56,0.00,CLR,,0.00,WeatherDisplay:10.37,2013-01-31 06:48:00,
2013-01-30 23:53:00,29.1,15.4,29.81,ESE,112,0.0,0.5,56,0.00,CLR,,0.00,WeatherDisplay:10.37,2013-01-31 06:53:00,
2013-01-30 23:58:00,28.9,15.6,29.81,ENE,68,1.2,1.2,57,0.00,CLR,,0.00,WeatherDisplay:10.37,2013-01-31 06:58:00,